sensor_id;sensor_type;location;lat;lon;timestamp;P1;durP1;ratioP1;P2;durP2;ratioP2
7903;SDS011;3997;48.416;8.512;2022-10-31T00:01:00;6.45;;;2.67;;
7903;SDS011;3997;48.416;8.512;2022-10-31T00:03:27;5.38;;;2.97;;
7903;SDS011;3997;48.416;8.512;2022-10-31T00:05:53;6.20;;;2.63;;
7903;SDS011;3997;48.416;8.512;2022-10-31T00:08:20;6.30;;;2.85;;
7903;SDS011;3997;48.416;8.512;2022-10-31T00:10:47;3.40;;;2.45;;
7903;SDS011;3997;48.416;8.512;2022-10-31T00:13:13;5.38;;;2.90;;
7903;SDS011;3997;48.416;8.512;2022-10-31T00:15:42;4.68;;;3.22;;
7903;SDS011;3997;48.416;8.512;2022-10-31T00:18:09;5.15;;;2.97;;
7903;SDS011;3997;48.416;8.512;2022-10-31T00:20:36;6.63;;;2.85;;
7903;SDS011;3997;48.416;8.512;2022-10-31T00:23:03;3.55;;;2.45;;
7903;SDS011;3997;48.416;8.512;2022-10-31T00:25:32;7.30;;;2.85;;
7903;SDS011;3997;48.416;8.512;2022-10-31T00:28:01;7.50;;;2.50;;
7903;SDS011;3997;48.416;8.512;2022-10-31T00:30:27;3.17;;;2.85;;
7903;SDS011;3997;48.416;8.512;2022-10-31T00:32:55;4.40;;;2.55;;
7903;SDS011;3997;48.416;8.512;2022-10-31T00:35:22;6.57;;;2.65;;
7903;SDS011;3997;48.416;8.512;2022-10-31T00:37:49;4.22;;;2.55;;
7903;SDS011;3997;48.416;8.512;2022-10-31T00:40:16;3.65;;;2.53;;
7903;SDS011;3997;48.416;8.512;2022-10-31T00:42:42;4.15;;;2.53;;
7903;SDS011;3997;48.416;8.512;2022-10-31T00:45:09;4.68;;;2.35;;
7903;SDS011;3997;48.416;8.512;2022-10-31T00:47:37;6.50;;;2.50;;
7903;SDS011;3997;48.416;8.512;2022-10-31T00:50:05;6.78;;;2.85;;
7903;SDS011;3997;48.416;8.512;2022-10-31T00:52:33;7.63;;;2.92;;
7903;SDS011;3997;48.416;8.512;2022-10-31T00:54:59;4.53;;;2.58;;
7903;SDS011;3997;48.416;8.512;2022-10-31T00:57:26;3.55;;;2.40;;
7903;SDS011;3997;48.416;8.512;2022-10-31T00:59:53;3.78;;;2.78;;
7903;SDS011;3997;48.416;8.512;2022-10-31T01:02:19;5.53;;;2.92;;
7903;SDS011;3997;48.416;8.512;2022-10-31T01:04:46;5.22;;;3.10;;
7903;SDS011;3997;48.416;8.512;2022-10-31T01:07:14;7.07;;;2.50;;
7903;SDS011;3997;48.416;8.512;2022-10-31T01:09:41;6.65;;;3.13;;
7903;SDS011;3997;48.416;8.512;2022-10-31T01:12:07;4.20;;;2.60;;
7903;SDS011;3997;48.416;8.512;2022-10-31T01:14:34;5.55;;;2.83;;
7903;SDS011;3997;48.416;8.512;2022-10-31T01:17:01;4.57;;;2.75;;
7903;SDS011;3997;48.416;8.512;2022-10-31T01:19:28;3.50;;;2.42;;
7903;SDS011;3997;48.416;8.512;2022-10-31T01:21:54;5.03;;;2.67;;
7903;SDS011;3997;48.416;8.512;2022-10-31T01:24:22;5.65;;;2.83;;
7903;SDS011;3997;48.416;8.512;2022-10-31T01:26:49;12.05;;;2.95;;
7903;SDS011;3997;48.416;8.512;2022-10-31T01:29:16;4.35;;;2.83;;
7903;SDS011;3997;48.416;8.512;2022-10-31T01:31:43;4.75;;;2.70;;
7903;SDS011;3997;48.416;8.512;2022-10-31T01:34:10;3.65;;;2.67;;
7903;SDS011;3997;48.416;8.512;2022-10-31T01:36:39;4.82;;;2.50;;
7903;SDS011;3997;48.416;8.512;2022-10-31T01:39:06;6.50;;;2.70;;
7903;SDS011;3997;48.416;8.512;2022-10-31T01:41:37;9.50;;;2.60;;
7903;SDS011;3997;48.416;8.512;2022-10-31T01:47:05;4.72;;;2.90;;
7903;SDS011;3997;48.416;8.512;2022-10-31T01:49:34;4.72;;;2.22;;
7903;SDS011;3997;48.416;8.512;2022-10-31T01:52:04;5.25;;;2.55;;
7903;SDS011;3997;48.416;8.512;2022-10-31T01:54:36;5.40;;;2.72;;
7903;SDS011;3997;48.416;8.512;2022-10-31T01:57:08;9.70;;;3.08;;
7903;SDS011;3997;48.416;8.512;2022-10-31T01:59:37;5.18;;;2.40;;
7903;SDS011;3997;48.416;8.512;2022-10-31T02:02:08;6.43;;;2.88;;
7903;SDS011;3997;48.416;8.512;2022-10-31T02:04:35;5.38;;;2.55;;
7903;SDS011;3997;48.416;8.512;2022-10-31T02:07:04;5.22;;;3.05;;
7903;SDS011;3997;48.416;8.512;2022-10-31T02:09:34;2.97;;;2.47;;
7903;SDS011;3997;48.416;8.512;2022-10-31T02:12:02;4.55;;;2.55;;
7903;SDS011;3997;48.416;8.512;2022-10-31T02:14:32;3.90;;;2.83;;
7903;SDS011;3997;48.416;8.512;2022-10-31T02:16:59;6.43;;;2.50;;
7903;SDS011;3997;48.416;8.512;2022-10-31T02:19:28;2.97;;;2.53;;
7903;SDS011;3997;48.416;8.512;2022-10-31T02:22:02;4.18;;;2.63;;
7903;SDS011;3997;48.416;8.512;2022-10-31T02:24:45;10.32;;;3.03;;
7903;SDS011;3997;48.416;8.512;2022-10-31T02:27:32;6.53;;;2.60;;
7903;SDS011;3997;48.416;8.512;2022-10-31T02:30:15;6.68;;;2.63;;
7903;SDS011;3997;48.416;8.512;2022-10-31T02:32:54;6.28;;;2.50;;
7903;SDS011;3997;48.416;8.512;2022-10-31T02:35:30;7.65;;;2.55;;
7903;SDS011;3997;48.416;8.512;2022-10-31T02:38:08;4.90;;;2.78;;
7903;SDS011;3997;48.416;8.512;2022-10-31T02:40:46;7.43;;;3.17;;
7903;SDS011;3997;48.416;8.512;2022-10-31T02:43:18;3.03;;;2.22;;
7903;SDS011;3997;48.416;8.512;2022-10-31T02:45:48;5.95;;;2.30;;
7903;SDS011;3997;48.416;8.512;2022-10-31T02:48:26;4.32;;;2.70;;
7903;SDS011;3997;48.416;8.512;2022-10-31T02:50:55;6.10;;;2.80;;
7903;SDS011;3997;48.416;8.512;2022-10-31T02:53:25;5.00;;;2.20;;
7903;SDS011;3997;48.416;8.512;2022-10-31T02:55:55;8.27;;;2.63;;
7903;SDS011;3997;48.416;8.512;2022-10-31T02:58:26;6.28;;;3.08;;
7903;SDS011;3997;48.416;8.512;2022-10-31T03:04:02;4.60;;;2.45;;
7903;SDS011;3997;48.416;8.512;2022-10-31T03:06:44;5.68;;;2.50;;
7903;SDS011;3997;48.416;8.512;2022-10-31T03:09:17;6.95;;;2.65;;
7903;SDS011;3997;48.416;8.512;2022-10-31T03:11:51;4.72;;;2.60;;
7903;SDS011;3997;48.416;8.512;2022-10-31T03:14:24;3.97;;;2.90;;
7903;SDS011;3997;48.416;8.512;2022-10-31T03:16:58;7.18;;;2.72;;
7903;SDS011;3997;48.416;8.512;2022-10-31T03:19:33;7.53;;;3.00;;
7903;SDS011;3997;48.416;8.512;2022-10-31T03:22:06;4.35;;;2.60;;
7903;SDS011;3997;48.416;8.512;2022-10-31T03:24:39;7.93;;;2.90;;
7903;SDS011;3997;48.416;8.512;2022-10-31T03:27:07;7.45;;;2.40;;
7903;SDS011;3997;48.416;8.512;2022-10-31T03:29:36;5.25;;;2.90;;
7903;SDS011;3997;48.416;8.512;2022-10-31T03:32:05;6.82;;;2.85;;
7903;SDS011;3997;48.416;8.512;2022-10-31T03:34:35;4.53;;;2.30;;
7903;SDS011;3997;48.416;8.512;2022-10-31T03:37:04;6.30;;;2.55;;
7903;SDS011;3997;48.416;8.512;2022-10-31T03:39:34;2.72;;;2.35;;
7903;SDS011;3997;48.416;8.512;2022-10-31T03:42:05;6.78;;;2.53;;
7903;SDS011;3997;48.416;8.512;2022-10-31T03:44:34;3.08;;;2.17;;
7903;SDS011;3997;48.416;8.512;2022-10-31T03:47:01;6.18;;;2.60;;
7903;SDS011;3997;48.416;8.512;2022-10-31T03:49:30;4.55;;;2.58;;
7903;SDS011;3997;48.416;8.512;2022-10-31T03:52:00;4.40;;;2.08;;
7903;SDS011;3997;48.416;8.512;2022-10-31T03:54:36;7.15;;;2.45;;
7903;SDS011;3997;48.416;8.512;2022-10-31T03:57:09;6.35;;;2.58;;
7903;SDS011;3997;48.416;8.512;2022-10-31T03:59:42;4.60;;;2.50;;
7903;SDS011;3997;48.416;8.512;2022-10-31T04:02:12;6.00;;;2.70;;
7903;SDS011;3997;48.416;8.512;2022-10-31T04:04:43;5.70;;;2.90;;
7903;SDS011;3997;48.416;8.512;2022-10-31T04:07:13;4.20;;;2.63;;
7903;SDS011;3997;48.416;8.512;2022-10-31T04:09:43;4.80;;;2.40;;
7903;SDS011;3997;48.416;8.512;2022-10-31T04:12:13;4.03;;;2.50;;
7903;SDS011;3997;48.416;8.512;2022-10-31T04:14:43;11.07;;;3.00;;
7903;SDS011;3997;48.416;8.512;2022-10-31T04:17:13;4.63;;;2.53;;
7903;SDS011;3997;48.416;8.512;2022-10-31T04:19:43;3.80;;;2.70;;
7903;SDS011;3997;48.416;8.512;2022-10-31T04:22:09;6.00;;;2.90;;
7903;SDS011;3997;48.416;8.512;2022-10-31T04:24:38;4.93;;;2.63;;
7903;SDS011;3997;48.416;8.512;2022-10-31T04:27:06;3.58;;;2.78;;
7903;SDS011;3997;48.416;8.512;2022-10-31T04:29:33;6.00;;;2.70;;
7903;SDS011;3997;48.416;8.512;2022-10-31T04:32:00;5.18;;;2.53;;
7903;SDS011;3997;48.416;8.512;2022-10-31T04:34:26;5.05;;;2.60;;
7903;SDS011;3997;48.416;8.512;2022-10-31T04:36:53;6.00;;;2.80;;
7903;SDS011;3997;48.416;8.512;2022-10-31T04:39:20;5.80;;;3.15;;
7903;SDS011;3997;48.416;8.512;2022-10-31T04:41:48;4.18;;;2.80;;
7903;SDS011;3997;48.416;8.512;2022-10-31T04:44:14;6.03;;;3.22;;
7903;SDS011;3997;48.416;8.512;2022-10-31T04:46:41;5.95;;;2.72;;
7903;SDS011;3997;48.416;8.512;2022-10-31T04:49:08;4.00;;;2.90;;
7903;SDS011;3997;48.416;8.512;2022-10-31T04:51:34;4.88;;;2.80;;
7903;SDS011;3997;48.416;8.512;2022-10-31T04:54:01;5.63;;;3.28;;
7903;SDS011;3997;48.416;8.512;2022-10-31T04:56:28;5.80;;;2.78;;
7903;SDS011;3997;48.416;8.512;2022-10-31T04:58:56;5.70;;;2.72;;
7903;SDS011;3997;48.416;8.512;2022-10-31T05:01:23;4.60;;;2.72;;
7903;SDS011;3997;48.416;8.512;2022-10-31T05:03:49;4.40;;;2.97;;
7903;SDS011;3997;48.416;8.512;2022-10-31T05:06:16;6.03;;;2.45;;
7903;SDS011;3997;48.416;8.512;2022-10-31T05:08:43;5.25;;;2.95;;
7903;SDS011;3997;48.416;8.512;2022-10-31T05:11:09;5.00;;;2.40;;
7903;SDS011;3997;48.416;8.512;2022-10-31T05:13:36;5.32;;;2.42;;
7903;SDS011;3997;48.416;8.512;2022-10-31T05:16:04;6.90;;;2.42;;
7903;SDS011;3997;48.416;8.512;2022-10-31T05:18:31;5.90;;;2.85;;
7903;SDS011;3997;48.416;8.512;2022-10-31T05:20:58;7.00;;;3.20;;
7903;SDS011;3997;48.416;8.512;2022-10-31T05:23:25;5.43;;;3.13;;
7903;SDS011;3997;48.416;8.512;2022-10-31T05:25:51;8.82;;;3.22;;
7903;SDS011;3997;48.416;8.512;2022-10-31T05:28:18;5.78;;;2.83;;
7903;SDS011;3997;48.416;8.512;2022-10-31T05:30:44;5.22;;;2.80;;
7903;SDS011;3997;48.416;8.512;2022-10-31T05:33:12;6.32;;;2.97;;
7903;SDS011;3997;48.416;8.512;2022-10-31T05:35:39;3.00;;;2.63;;
7903;SDS011;3997;48.416;8.512;2022-10-31T05:38:06;5.60;;;2.80;;
7903;SDS011;3997;48.416;8.512;2022-10-31T05:40:32;7.47;;;3.25;;
7903;SDS011;3997;48.416;8.512;2022-10-31T05:42:59;9.55;;;3.25;;
7903;SDS011;3997;48.416;8.512;2022-10-31T05:45:26;7.13;;;2.72;;
7903;SDS011;3997;48.416;8.512;2022-10-31T05:47:52;2.63;;;2.13;;
7903;SDS011;3997;48.416;8.512;2022-10-31T05:50:22;4.00;;;2.35;;
7903;SDS011;3997;48.416;8.512;2022-10-31T05:52:54;3.88;;;2.53;;
7903;SDS011;3997;48.416;8.512;2022-10-31T05:55:21;6.30;;;3.10;;
7903;SDS011;3997;48.416;8.512;2022-10-31T05:57:48;6.78;;;3.00;;
7903;SDS011;3997;48.416;8.512;2022-10-31T06:00:14;5.30;;;2.92;;
7903;SDS011;3997;48.416;8.512;2022-10-31T06:02:41;6.80;;;3.45;;
7903;SDS011;3997;48.416;8.512;2022-10-31T06:05:08;5.65;;;3.08;;
7903;SDS011;3997;48.416;8.512;2022-10-31T06:07:36;5.68;;;2.92;;
7903;SDS011;3997;48.416;8.512;2022-10-31T06:10:03;6.18;;;2.83;;
7903;SDS011;3997;48.416;8.512;2022-10-31T06:12:31;5.05;;;2.67;;
7903;SDS011;3997;48.416;8.512;2022-10-31T06:15:02;3.78;;;2.60;;
7903;SDS011;3997;48.416;8.512;2022-10-31T06:17:30;2.78;;;2.17;;
7903;SDS011;3997;48.416;8.512;2022-10-31T06:19:57;5.75;;;3.15;;
7903;SDS011;3997;48.416;8.512;2022-10-31T06:22:24;6.53;;;2.95;;
7903;SDS011;3997;48.416;8.512;2022-10-31T06:24:52;4.97;;;3.05;;
7903;SDS011;3997;48.416;8.512;2022-10-31T06:27:18;4.63;;;2.63;;
7903;SDS011;3997;48.416;8.512;2022-10-31T06:29:45;3.10;;;2.30;;
7903;SDS011;3997;48.416;8.512;2022-10-31T06:32:12;3.22;;;2.70;;
7903;SDS011;3997;48.416;8.512;2022-10-31T06:34:39;4.43;;;2.75;;
7903;SDS011;3997;48.416;8.512;2022-10-31T06:37:06;6.38;;;2.47;;
7903;SDS011;3997;48.416;8.512;2022-10-31T06:39:33;4.25;;;2.67;;
7903;SDS011;3997;48.416;8.512;2022-10-31T06:42:01;6.07;;;2.70;;
7903;SDS011;3997;48.416;8.512;2022-10-31T06:44:28;5.32;;;2.75;;
7903;SDS011;3997;48.416;8.512;2022-10-31T06:46:55;7.97;;;2.92;;
7903;SDS011;3997;48.416;8.512;2022-10-31T06:49:21;4.65;;;2.78;;
7903;SDS011;3997;48.416;8.512;2022-10-31T06:51:48;5.28;;;3.20;;
7903;SDS011;3997;48.416;8.512;2022-10-31T06:54:15;7.63;;;4.10;;
7903;SDS011;3997;48.416;8.512;2022-10-31T06:56:45;8.05;;;2.85;;
7903;SDS011;3997;48.416;8.512;2022-10-31T06:59:13;4.90;;;3.05;;
7903;SDS011;3997;48.416;8.512;2022-10-31T07:01:40;13.52;;;5.10;;
7903;SDS011;3997;48.416;8.512;2022-10-31T07:04:09;6.10;;;4.38;;
7903;SDS011;3997;48.416;8.512;2022-10-31T07:06:36;9.95;;;5.68;;
7903;SDS011;3997;48.416;8.512;2022-10-31T07:09:03;9.13;;;5.38;;
7903;SDS011;3997;48.416;8.512;2022-10-31T07:11:30;12.80;;;5.30;;
7903;SDS011;3997;48.416;8.512;2022-10-31T07:13:56;7.30;;;4.50;;
7903;SDS011;3997;48.416;8.512;2022-10-31T07:16:24;10.07;;;5.20;;
7903;SDS011;3997;48.416;8.512;2022-10-31T07:18:51;8.60;;;5.68;;
7903;SDS011;3997;48.416;8.512;2022-10-31T07:21:18;12.63;;;5.00;;
7903;SDS011;3997;48.416;8.512;2022-10-31T07:23:46;9.98;;;5.18;;
7903;SDS011;3997;48.416;8.512;2022-10-31T07:26:14;8.18;;;5.45;;
7903;SDS011;3997;48.416;8.512;2022-10-31T07:28:41;7.00;;;4.20;;
7903;SDS011;3997;48.416;8.512;2022-10-31T07:31:07;7.30;;;4.13;;
7903;SDS011;3997;48.416;8.512;2022-10-31T07:33:35;7.03;;;4.32;;
7903;SDS011;3997;48.416;8.512;2022-10-31T07:36:02;4.78;;;4.22;;
7903;SDS011;3997;48.416;8.512;2022-10-31T07:38:29;6.13;;;4.35;;
7903;SDS011;3997;48.416;8.512;2022-10-31T07:40:55;6.93;;;4.28;;
7903;SDS011;3997;48.416;8.512;2022-10-31T07:43:22;5.32;;;3.67;;
7903;SDS011;3997;48.416;8.512;2022-10-31T07:45:49;6.63;;;3.28;;
7903;SDS011;3997;48.416;8.512;2022-10-31T07:51:07;5.40;;;3.70;;
7903;SDS011;3997;48.416;8.512;2022-10-31T07:53:34;4.78;;;3.58;;
7903;SDS011;3997;48.416;8.512;2022-10-31T07:56:01;4.78;;;3.13;;
7903;SDS011;3997;48.416;8.512;2022-10-31T07:58:27;9.52;;;3.55;;
7903;SDS011;3997;48.416;8.512;2022-10-31T08:00:54;6.30;;;3.60;;
7903;SDS011;3997;48.416;8.512;2022-10-31T08:03:21;7.78;;;3.55;;
7903;SDS011;3997;48.416;8.512;2022-10-31T08:05:47;5.13;;;3.38;;
7903;SDS011;3997;48.416;8.512;2022-10-31T08:08:15;6.05;;;3.25;;
7903;SDS011;3997;48.416;8.512;2022-10-31T08:10:42;4.65;;;3.67;;
7903;SDS011;3997;48.416;8.512;2022-10-31T08:13:10;3.92;;;3.08;;
7903;SDS011;3997;48.416;8.512;2022-10-31T08:15:38;6.78;;;3.15;;
7903;SDS011;3997;48.416;8.512;2022-10-31T08:18:07;4.65;;;3.28;;
7903;SDS011;3997;48.416;8.512;2022-10-31T08:20:37;3.28;;;2.97;;
7903;SDS011;3997;48.416;8.512;2022-10-31T08:23:04;7.00;;;3.60;;
7903;SDS011;3997;48.416;8.512;2022-10-31T08:25:33;4.85;;;2.90;;
7903;SDS011;3997;48.416;8.512;2022-10-31T08:28:00;3.95;;;2.95;;
7903;SDS011;3997;48.416;8.512;2022-10-31T08:30:28;7.60;;;4.03;;
7903;SDS011;3997;48.416;8.512;2022-10-31T08:32:57;6.72;;;3.70;;
7903;SDS011;3997;48.416;8.512;2022-10-31T08:35:25;4.25;;;3.33;;
7903;SDS011;3997;48.416;8.512;2022-10-31T08:37:52;6.68;;;3.47;;
7903;SDS011;3997;48.416;8.512;2022-10-31T08:40:19;5.00;;;3.45;;
7903;SDS011;3997;48.416;8.512;2022-10-31T08:42:54;9.85;;;3.42;;
7903;SDS011;3997;48.416;8.512;2022-10-31T08:45:21;4.47;;;3.17;;
7903;SDS011;3997;48.416;8.512;2022-10-31T08:47:48;5.72;;;2.65;;
7903;SDS011;3997;48.416;8.512;2022-10-31T08:50:15;4.55;;;3.03;;
7903;SDS011;3997;48.416;8.512;2022-10-31T08:52:42;6.85;;;2.78;;
7903;SDS011;3997;48.416;8.512;2022-10-31T08:55:08;6.15;;;2.55;;
7903;SDS011;3997;48.416;8.512;2022-10-31T08:57:35;5.10;;;2.55;;
7903;SDS011;3997;48.416;8.512;2022-10-31T09:00:03;5.15;;;2.65;;
7903;SDS011;3997;48.416;8.512;2022-10-31T09:02:31;5.53;;;2.65;;
7903;SDS011;3997;48.416;8.512;2022-10-31T09:04:58;3.45;;;2.35;;
7903;SDS011;3997;48.416;8.512;2022-10-31T09:07:24;3.53;;;2.35;;
7903;SDS011;3997;48.416;8.512;2022-10-31T09:09:51;5.35;;;3.08;;
7903;SDS011;3997;48.416;8.512;2022-10-31T09:12:18;6.32;;;2.63;;
7903;SDS011;3997;48.416;8.512;2022-10-31T09:14:45;5.55;;;2.50;;
7903;SDS011;3997;48.416;8.512;2022-10-31T09:17:13;4.95;;;2.33;;
7903;SDS011;3997;48.416;8.512;2022-10-31T09:19:39;5.00;;;1.92;;
7903;SDS011;3997;48.416;8.512;2022-10-31T09:22:06;4.15;;;2.13;;
7903;SDS011;3997;48.416;8.512;2022-10-31T09:24:33;4.60;;;2.33;;
7903;SDS011;3997;48.416;8.512;2022-10-31T09:26:59;5.28;;;2.83;;
7903;SDS011;3997;48.416;8.512;2022-10-31T09:29:26;5.00;;;2.90;;
7903;SDS011;3997;48.416;8.512;2022-10-31T09:31:52;4.85;;;2.58;;
7903;SDS011;3997;48.416;8.512;2022-10-31T09:34:20;5.05;;;2.95;;
7903;SDS011;3997;48.416;8.512;2022-10-31T09:36:47;4.78;;;3.00;;
7903;SDS011;3997;48.416;8.512;2022-10-31T09:39:14;6.15;;;3.88;;
7903;SDS011;3997;48.416;8.512;2022-10-31T09:41:48;5.35;;;3.67;;
7903;SDS011;3997;48.416;8.512;2022-10-31T09:44:28;4.93;;;3.17;;
7903;SDS011;3997;48.416;8.512;2022-10-31T09:47:01;4.35;;;2.80;;
7903;SDS011;3997;48.416;8.512;2022-10-31T09:49:41;4.90;;;3.10;;
7903;SDS011;3997;48.416;8.512;2022-10-31T09:52:20;5.55;;;3.45;;
7903;SDS011;3997;48.416;8.512;2022-10-31T09:54:51;4.32;;;2.90;;
7903;SDS011;3997;48.416;8.512;2022-10-31T09:57:23;4.90;;;3.00;;
7903;SDS011;3997;48.416;8.512;2022-10-31T09:59:54;6.35;;;3.42;;
7903;SDS011;3997;48.416;8.512;2022-10-31T10:02:23;5.43;;;2.70;;
7903;SDS011;3997;48.416;8.512;2022-10-31T10:04:57;4.38;;;3.05;;
7903;SDS011;3997;48.416;8.512;2022-10-31T10:07:29;6.45;;;3.08;;
7903;SDS011;3997;48.416;8.512;2022-10-31T10:10:05;3.78;;;3.17;;
7903;SDS011;3997;48.416;8.512;2022-10-31T10:12:43;7.80;;;3.10;;
7903;SDS011;3997;48.416;8.512;2022-10-31T10:15:26;7.03;;;2.50;;
7903;SDS011;3997;48.416;8.512;2022-10-31T10:18:03;5.72;;;2.97;;
7903;SDS011;3997;48.416;8.512;2022-10-31T10:20:41;4.85;;;2.83;;
7903;SDS011;3997;48.416;8.512;2022-10-31T10:23:23;3.50;;;2.92;;
7903;SDS011;3997;48.416;8.512;2022-10-31T10:26:06;4.15;;;2.80;;
7903;SDS011;3997;48.416;8.512;2022-10-31T10:28:41;5.60;;;3.08;;
7903;SDS011;3997;48.416;8.512;2022-10-31T10:31:13;5.65;;;3.05;;
7903;SDS011;3997;48.416;8.512;2022-10-31T10:33:43;5.80;;;2.72;;
7903;SDS011;3997;48.416;8.512;2022-10-31T10:36:22;3.42;;;2.47;;
7903;SDS011;3997;48.416;8.512;2022-10-31T10:38:57;3.55;;;2.45;;
7903;SDS011;3997;48.416;8.512;2022-10-31T10:41:27;6.55;;;2.42;;
7903;SDS011;3997;48.416;8.512;2022-10-31T10:43:57;4.93;;;2.33;;
7903;SDS011;3997;48.416;8.512;2022-10-31T10:46:25;4.63;;;2.83;;
7903;SDS011;3997;48.416;8.512;2022-10-31T10:49:15;5.15;;;2.40;;
7903;SDS011;3997;48.416;8.512;2022-10-31T10:51:46;3.13;;;2.05;;
7903;SDS011;3997;48.416;8.512;2022-10-31T10:57:18;4.38;;;2.90;;
7903;SDS011;3997;48.416;8.512;2022-10-31T10:59:48;5.78;;;2.60;;
7903;SDS011;3997;48.416;8.512;2022-10-31T11:02:17;4.50;;;2.63;;
7903;SDS011;3997;48.416;8.512;2022-10-31T11:04:51;4.30;;;3.03;;
7903;SDS011;3997;48.416;8.512;2022-10-31T11:07:21;6.80;;;2.40;;
7903;SDS011;3997;48.416;8.512;2022-10-31T11:09:48;6.15;;;3.00;;
7903;SDS011;3997;48.416;8.512;2022-10-31T11:12:20;4.70;;;2.40;;
7903;SDS011;3997;48.416;8.512;2022-10-31T11:14:49;4.50;;;2.58;;
7903;SDS011;3997;48.416;8.512;2022-10-31T11:17:20;6.15;;;2.80;;
7903;SDS011;3997;48.416;8.512;2022-10-31T11:20:03;4.47;;;2.47;;
7903;SDS011;3997;48.416;8.512;2022-10-31T11:23:00;2.92;;;2.60;;
7903;SDS011;3997;48.416;8.512;2022-10-31T11:25:28;3.42;;;2.85;;
7903;SDS011;3997;48.416;8.512;2022-10-31T11:27:58;6.63;;;2.90;;
7903;SDS011;3997;48.416;8.512;2022-10-31T11:30:26;5.47;;;2.95;;
7903;SDS011;3997;48.416;8.512;2022-10-31T11:32:53;3.65;;;2.50;;
7903;SDS011;3997;48.416;8.512;2022-10-31T11:35:20;6.80;;;2.88;;
7903;SDS011;3997;48.416;8.512;2022-10-31T11:37:49;4.40;;;2.95;;
7903;SDS011;3997;48.416;8.512;2022-10-31T11:40:20;3.53;;;2.28;;
7903;SDS011;3997;48.416;8.512;2022-10-31T11:42:50;4.55;;;2.58;;
7903;SDS011;3997;48.416;8.512;2022-10-31T11:45:27;4.88;;;2.70;;
7903;SDS011;3997;48.416;8.512;2022-10-31T11:47:56;3.42;;;2.40;;
7903;SDS011;3997;48.416;8.512;2022-10-31T11:50:27;4.43;;;2.78;;
7903;SDS011;3997;48.416;8.512;2022-10-31T11:52:56;5.60;;;2.33;;
7903;SDS011;3997;48.416;8.512;2022-10-31T11:55:30;5.20;;;2.40;;
7903;SDS011;3997;48.416;8.512;2022-10-31T11:57:58;3.33;;;2.55;;
7903;SDS011;3997;48.416;8.512;2022-10-31T12:00:25;5.60;;;2.65;;
7903;SDS011;3997;48.416;8.512;2022-10-31T12:03:04;5.25;;;2.38;;
7903;SDS011;3997;48.416;8.512;2022-10-31T12:05:36;6.13;;;2.42;;
7903;SDS011;3997;48.416;8.512;2022-10-31T12:08:08;4.55;;;2.70;;
7903;SDS011;3997;48.416;8.512;2022-10-31T12:10:40;3.92;;;2.20;;
7903;SDS011;3997;48.416;8.512;2022-10-31T12:13:22;5.57;;;2.50;;
7903;SDS011;3997;48.416;8.512;2022-10-31T12:16:00;4.32;;;3.08;;
7903;SDS011;3997;48.416;8.512;2022-10-31T12:18:37;7.18;;;3.30;;
7903;SDS011;3997;48.416;8.512;2022-10-31T12:21:21;4.15;;;2.83;;
7903;SDS011;3997;48.416;8.512;2022-10-31T12:24:05;4.70;;;2.63;;
7903;SDS011;3997;48.416;8.512;2022-10-31T12:26:42;5.25;;;3.00;;
7903;SDS011;3997;48.416;8.512;2022-10-31T12:29:22;4.68;;;2.53;;
7903;SDS011;3997;48.416;8.512;2022-10-31T12:32:00;4.85;;;2.63;;
7903;SDS011;3997;48.416;8.512;2022-10-31T12:34:57;6.78;;;3.38;;
7903;SDS011;3997;48.416;8.512;2022-10-31T12:37:38;6.75;;;2.78;;
7903;SDS011;3997;48.416;8.512;2022-10-31T12:40:28;4.82;;;2.60;;
7903;SDS011;3997;48.416;8.512;2022-10-31T12:43:08;3.00;;;2.63;;
7903;SDS011;3997;48.416;8.512;2022-10-31T12:45:50;5.95;;;2.50;;
7903;SDS011;3997;48.416;8.512;2022-10-31T12:51:26;6.72;;;2.72;;
7903;SDS011;3997;48.416;8.512;2022-10-31T12:54:08;3.50;;;2.10;;
7903;SDS011;3997;48.416;8.512;2022-10-31T12:56:47;3.25;;;2.42;;
7903;SDS011;3997;48.416;8.512;2022-10-31T12:59:21;5.43;;;2.45;;
7903;SDS011;3997;48.416;8.512;2022-10-31T13:01:53;5.65;;;2.58;;
7903;SDS011;3997;48.416;8.512;2022-10-31T13:04:30;4.00;;;2.53;;
7903;SDS011;3997;48.416;8.512;2022-10-31T13:07:05;7.68;;;2.83;;
7903;SDS011;3997;48.416;8.512;2022-10-31T13:09:50;5.07;;;2.40;;
7903;SDS011;3997;48.416;8.512;2022-10-31T13:12:24;4.97;;;2.40;;
7903;SDS011;3997;48.416;8.512;2022-10-31T13:14:54;6.97;;;2.53;;
7903;SDS011;3997;48.416;8.512;2022-10-31T13:17:26;7.40;;;2.97;;
7903;SDS011;3997;48.416;8.512;2022-10-31T13:20:03;6.20;;;3.00;;
7903;SDS011;3997;48.416;8.512;2022-10-31T13:22:49;5.40;;;2.83;;
7903;SDS011;3997;48.416;8.512;2022-10-31T13:25:19;4.97;;;2.75;;
7903;SDS011;3997;48.416;8.512;2022-10-31T13:27:53;5.15;;;2.50;;
7903;SDS011;3997;48.416;8.512;2022-10-31T13:30:23;3.90;;;2.85;;
7903;SDS011;3997;48.416;8.512;2022-10-31T13:32:54;5.07;;;2.67;;
7903;SDS011;3997;48.416;8.512;2022-10-31T13:35:26;5.30;;;3.00;;
7903;SDS011;3997;48.416;8.512;2022-10-31T13:38:03;6.03;;;3.10;;
7903;SDS011;3997;48.416;8.512;2022-10-31T13:40:38;3.35;;;2.85;;
7903;SDS011;3997;48.416;8.512;2022-10-31T13:43:14;5.95;;;2.95;;
7903;SDS011;3997;48.416;8.512;2022-10-31T13:45:49;5.28;;;3.05;;
7903;SDS011;3997;48.416;8.512;2022-10-31T13:48:18;5.20;;;3.22;;
7903;SDS011;3997;48.416;8.512;2022-10-31T13:51:03;5.70;;;3.08;;
7903;SDS011;3997;48.416;8.512;2022-10-31T13:53:43;4.38;;;3.28;;
7903;SDS011;3997;48.416;8.512;2022-10-31T13:56:15;5.00;;;3.30;;
7903;SDS011;3997;48.416;8.512;2022-10-31T14:01:51;5.68;;;3.05;;
7903;SDS011;3997;48.416;8.512;2022-10-31T14:04:22;4.50;;;3.42;;
7903;SDS011;3997;48.416;8.512;2022-10-31T14:06:52;4.95;;;3.05;;
7903;SDS011;3997;48.416;8.512;2022-10-31T14:09:25;6.13;;;3.20;;
7903;SDS011;3997;48.416;8.512;2022-10-31T14:11:59;3.42;;;2.67;;
7903;SDS011;3997;48.416;8.512;2022-10-31T14:14:32;6.43;;;2.65;;
7903;SDS011;3997;48.416;8.512;2022-10-31T14:17:06;4.78;;;2.70;;
7903;SDS011;3997;48.416;8.512;2022-10-31T14:19:55;5.40;;;2.83;;
7903;SDS011;3997;48.416;8.512;2022-10-31T14:22:37;7.03;;;3.25;;
7903;SDS011;3997;48.416;8.512;2022-10-31T14:28:17;3.97;;;3.25;;
7903;SDS011;3997;48.416;8.512;2022-10-31T14:30:52;4.30;;;3.60;;
7903;SDS011;3997;48.416;8.512;2022-10-31T14:33:19;5.55;;;3.33;;
7903;SDS011;3997;48.416;8.512;2022-10-31T14:35:51;6.65;;;3.65;;
7903;SDS011;3997;48.416;8.512;2022-10-31T14:47:24;8.90;;;3.60;;
7903;SDS011;3997;48.416;8.512;2022-10-31T14:50:04;4.10;;;3.22;;
7903;SDS011;3997;48.416;8.512;2022-10-31T14:52:43;5.97;;;3.45;;
7903;SDS011;3997;48.416;8.512;2022-10-31T14:55:14;4.53;;;3.25;;
7903;SDS011;3997;48.416;8.512;2022-10-31T14:57:43;5.85;;;3.97;;
7903;SDS011;3997;48.416;8.512;2022-10-31T15:00:16;8.10;;;3.85;;
7903;SDS011;3997;48.416;8.512;2022-10-31T15:02:49;6.15;;;3.45;;
7903;SDS011;3997;48.416;8.512;2022-10-31T15:05:22;6.32;;;3.42;;
7903;SDS011;3997;48.416;8.512;2022-10-31T15:07:52;7.57;;;3.08;;
7903;SDS011;3997;48.416;8.512;2022-10-31T15:10:21;4.90;;;3.22;;
7903;SDS011;3997;48.416;8.512;2022-10-31T15:12:50;5.13;;;3.28;;
7903;SDS011;3997;48.416;8.512;2022-10-31T15:15:19;6.22;;;3.00;;
7903;SDS011;3997;48.416;8.512;2022-10-31T15:17:49;6.00;;;2.97;;
7903;SDS011;3997;48.416;8.512;2022-10-31T15:20:19;5.18;;;3.13;;
7903;SDS011;3997;48.416;8.512;2022-10-31T15:22:49;7.15;;;3.78;;
7903;SDS011;3997;48.416;8.512;2022-10-31T15:25:17;4.30;;;2.72;;
7903;SDS011;3997;48.416;8.512;2022-10-31T15:27:46;5.45;;;3.08;;
7903;SDS011;3997;48.416;8.512;2022-10-31T15:30:16;5.10;;;3.08;;
7903;SDS011;3997;48.416;8.512;2022-10-31T15:32:45;8.10;;;3.40;;
7903;SDS011;3997;48.416;8.512;2022-10-31T15:35:18;4.88;;;3.28;;
7903;SDS011;3997;48.416;8.512;2022-10-31T15:37:47;5.43;;;2.85;;
7903;SDS011;3997;48.416;8.512;2022-10-31T15:40:15;7.10;;;3.05;;
7903;SDS011;3997;48.416;8.512;2022-10-31T15:42:46;3.70;;;3.00;;
7903;SDS011;3997;48.416;8.512;2022-10-31T15:45:18;4.72;;;3.28;;
7903;SDS011;3997;48.416;8.512;2022-10-31T15:47:49;4.35;;;2.85;;
7903;SDS011;3997;48.416;8.512;2022-10-31T15:50:25;4.10;;;3.20;;
7903;SDS011;3997;48.416;8.512;2022-10-31T15:52:57;5.25;;;3.17;;
7903;SDS011;3997;48.416;8.512;2022-10-31T15:55:25;5.93;;;3.50;;
7903;SDS011;3997;48.416;8.512;2022-10-31T15:57:55;8.52;;;3.75;;
7903;SDS011;3997;48.416;8.512;2022-10-31T16:00:25;5.07;;;3.53;;
7903;SDS011;3997;48.416;8.512;2022-10-31T16:03:03;8.60;;;3.83;;
7903;SDS011;3997;48.416;8.512;2022-10-31T16:05:36;8.23;;;3.58;;